Time;durP1;ratioP1;P1;durP2;ratioP2;P2;SDS_P1;SDS_P2;PMS_P1;PMS_P2;Temp;Humidity;BMP_temperature;BMP_pressure;BME280_temperature;BME280_humidity;BME280_pressure;Samples;Min_cycle;Max_cycle;Signal;HPM_P1;HPM_P2
2024/01/06 00:00:34;;;;;;;;;;;1.30;99.90;;;;;;5075483;28;20134;-79
2024/01/06 00:03:00;;;;;;;0.88;0.80;;;1.30;99.90;;;;;;5082612;28;20332;-78
2024/01/06 00:05:26;;;;;;;0.70;0.70;;;1.20;99.90;;;;;;5061883;28;20456;-79
2024/01/06 00:07:52;;;;;;;0.70;0.70;;;1.20;99.90;;;;;;5052370;28;20039;-78
2024/01/06 00:10:18;;;;;;;2.67;1.55;;;1.20;99.90;;;;;;5043031;28;20036;-78
2024/01/06 00:12:44;;;;;;;0.60;0.60;;;1.30;99.90;;;;;;5073428;28;20063;-78
2024/01/06 00:15:10;;;;;;;0.68;0.68;;;1.20;99.90;;;;;;5073558;28;20150;-78
2024/01/06 00:17:36;;;;;;;;;;;1.20;99.90;;;;;;5022356;23;20442;-80
2024/01/06 00:20:02;;;;;;;3.25;1.58;;;1.20;99.90;;;;;;5022232;28;19926;-77
2024/01/06 00:22:28;;;;;;;0.70;0.70;;;1.20;99.90;;;;;;4993614;28;20069;-80
2024/01/06 00:24:54;;;;;;;0.70;0.70;;;1.30;99.90;;;;;;5020814;28;20088;-78
2024/01/06 00:27:19;;;;;;;0.95;0.95;;;1.10;99.90;;;;;;4994289;28;20506;-77
2024/01/06 00:29:45;;;;;;;1.17;1.13;;;1.10;99.90;;;;;;5011474;28;20483;-80
2024/01/06 00:32:11;;;;;;;0.68;0.68;;;1.10;99.90;;;;;;4988368;28;20155;-80
2024/01/06 00:34:37;;;;;;;0.70;0.70;;;1.10;99.90;;;;;;5002648;28;20040;-78
2024/01/06 00:37:03;;;;;;;0.70;0.70;;;1.10;99.90;;;;;;5004742;28;20399;-78
2024/01/06 00:39:29;;;;;;;0.70;0.70;;;1.10;99.90;;;;;;4992836;28;20042;-79
2024/01/06 00:41:54;;;;;;;1.58;1.52;;;1.10;99.90;;;;;;5017144;28;20102;-78
2024/01/06 00:44:20;;;;;;;0.70;0.70;;;1.10;99.90;;;;;;4995846;28;20048;-81
2024/01/06 00:46:46;;;;;;;1.30;1.00;;;1.10;99.90;;;;;;4992622;28;20046;-76
2024/01/06 00:49:11;;;;;;;0.68;0.68;;;1.10;99.90;;;;;;4977847;28;20045;-76
2024/01/06 00:51:37;;;;;;;0.73;0.73;;;1.10;99.90;;;;;;5006616;28;20116;-80
2024/01/06 00:54:03;;;;;;;0.73;0.73;;;1.10;99.90;;;;;;4993708;28;20046;-80
2024/01/06 00:56:29;;;;;;;0.75;0.75;;;1.10;99.90;;;;;;5010225;28;20049;-76
2024/01/06 00:58:54;;;;;;;0.77;0.77;;;2.40;99.90;;;;;;5004214;28;20128;-80
2024/01/06 01:01:21;;;;;;;0.60;0.60;;;1.10;99.90;;;;;;5007039;28;20041;-78
2024/01/06 01:03:47;;;;;;;1.50;1.40;;;1.10;99.90;;;;;;5007969;28;20056;-79
2024/01/06 01:06:12;;;;;;;0.82;0.82;;;1.10;99.90;;;;;;5005928;28;20042;-77
2024/01/06 01:08:38;;;;;;;0.70;0.70;;;1.20;99.90;;;;;;5006426;28;20030;-78
2024/01/06 01:11:04;;;;;;;1.38;1.27;;;1.00;99.90;;;;;;5009745;28;20072;-76
2024/01/06 01:13:29;;;;;;;0.70;0.70;;;1.20;99.90;;;;;;5000263;28;20143;-78
2024/01/06 01:15:56;;;;;;;0.80;0.80;;;1.10;99.90;;;;;;4978222;28;20050;-80
2024/01/06 01:18:21;;;;;;;2.08;1.50;;;1.10;99.90;;;;;;5016728;28;20083;-77
2024/01/06 01:20:47;;;;;;;0.80;0.80;;;1.00;99.90;;;;;;4982986;28;20132;-77
2024/01/06 01:23:13;;;;;;;0.63;0.63;;;1.00;99.90;;;;;;4999695;28;20037;-80
2024/01/06 01:25:39;;;;;;;0.70;0.70;;;1.10;99.90;;;;;;4996778;28;20041;-76
2024/01/06 01:28:04;;;;;;;0.70;0.70;;;1.00;99.90;;;;;;4997076;28;20042;-78
2024/01/06 01:30:32;;;;;;;0.80;0.80;;;1.00;99.90;;;;;;4993171;28;20052;-79
2024/01/06 01:32:58;;;;;;;0.90;0.90;;;1.10;99.90;;;;;;4989810;28;20065;-79
2024/01/06 01:35:24;;;;;;;;;;;1.00;99.90;;;;;;5008100;28;20042;-80
2024/01/06 01:37:49;;;;;;;0.60;0.60;;;1.10;99.90;;;;;;5013007;28;19921;-77
2024/01/06 01:40:15;;;;;;;0.80;0.80;;;1.10;99.90;;;;;;4994132;28;20049;-77
2024/01/06 01:42:44;;;;;;;0.60;0.60;;;1.00;99.90;;;;;;5005682;28;20635;-80
2024/01/06 01:45:10;;;;;;;0.80;0.80;;;1.00;99.90;;;;;;4989719;28;20058;-79
2024/01/06 01:47:37;;;;;;;0.70;0.70;;;1.00;99.90;;;;;;4990011;28;20046;-79
2024/01/06 01:50:03;;;;;;;0.85;0.85;;;1.00;99.90;;;;;;5012406;28;20080;-76
2024/01/06 01:52:29;;;;;;;2.85;2.65;;;0.90;99.90;;;;;;4974059;28;20045;-80
2024/01/06 01:54:55;;;;;;;;;;;0.90;99.90;;;;;;5007351;28;20072;-80
2024/01/06 01:57:23;;;;;;;0.85;0.85;;;0.90;99.90;;;;;;5005309;28;20374;-78
2024/01/06 01:59:49;;;;;;;1.70;1.70;;;0.90;99.90;;;;;;4998883;28;20038;-76
2024/01/06 02:02:16;;;;;;;2.05;1.25;;;0.90;99.90;;;;;;5010505;28;20124;-79
2024/01/06 02:04:44;;;;;;;0.70;0.70;;;0.90;99.90;;;;;;5011916;28;20064;-78
2024/01/06 02:07:10;;;;;;;0.80;0.80;;;0.80;99.90;;;;;;4989292;28;20042;-80
2024/01/06 02:09:36;;;;;;;0.60;0.60;;;0.80;99.90;;;;;;5010293;28;20072;-80
2024/01/06 02:12:02;;;;;;;0.70;0.70;;;0.80;99.90;;;;;;5016775;28;20372;-81
2024/01/06 02:14:28;;;;;;;0.70;0.70;;;0.80;99.90;;;;;;5011982;28;20045;-81
2024/01/06 02:16:54;;;;;;;0.70;0.70;;;0.70;99.90;;;;;;4991154;28;20084;-77
2024/01/06 02:19:20;;;;;;;0.73;0.73;;;0.80;99.90;;;;;;5005726;28;20046;-78
2024/01/06 02:21:53;;;;;;;0.70;0.70;;;0.80;99.90;;;;;;4995588;28;20172;-80
2024/01/06 02:24:19;;;;;;;0.60;0.60;;;0.80;99.90;;;;;;4995290;28;20049;-78
2024/01/06 02:26:44;;;;;;;0.70;0.70;;;0.80;99.90;;;;;;4999034;28;20396;-77
2024/01/06 02:29:10;;;;;;;0.70;0.70;;;1.00;99.90;;;;;;5012644;28;20042;-80
2024/01/06 02:31:36;;;;;;;0.77;0.77;;;0.80;99.90;;;;;;5014709;28;20155;-75
2024/01/06 02:34:01;;;;;;;0.63;0.63;;;0.80;99.90;;;;;;4992824;28;20057;-77
2024/01/06 02:36:27;;;;;;;2.08;1.98;;;0.80;99.90;;;;;;5017362;28;20050;-76
2024/01/06 02:38:52;;;;;;;0.90;0.90;;;0.80;99.90;;;;;;4993902;28;20041;-81
2024/01/06 02:41:18;;;;;;;0.60;0.60;;;0.80;99.90;;;;;;5010473;28;20050;-77
2024/01/06 02:43:44;;;;;;;0.80;0.80;;;0.70;99.90;;;;;;4990562;28;20113;-81
2024/01/06 02:46:10;;;;;;;0.93;0.93;;;0.80;99.90;;;;;;4999370;28;20155;-78
2024/01/06 02:48:35;;;;;;;1.77;1.63;;;0.60;99.90;;;;;;5000788;28;20057;-79
2024/01/06 02:51:01;;;;;;;0.70;0.70;;;0.70;99.90;;;;;;4980825;28;20056;-77
2024/01/06 02:53:27;;;;;;;0.93;0.93;;;0.70;99.90;;;;;;5009194;28;20042;-81
2024/01/06 02:55:52;;;;;;;0.80;0.80;;;0.70;99.90;;;;;;4991855;28;20533;-80
2024/01/06 02:58:18;;;;;;;0.60;0.60;;;0.70;99.90;;;;;;5009749;28;20088;-79
2024/01/06 03:00:44;;;;;;;0.80;0.80;;;0.70;99.90;;;;;;4996950;28;20048;-78
2024/01/06 03:03:09;;;;;;;0.80;0.80;;;0.60;99.90;;;;;;5001644;28;20065;-77
2024/01/06 03:05:36;;;;;;;0.80;0.80;;;0.90;99.90;;;;;;4994122;28;20050;-79
2024/01/06 03:08:03;;;;;;;0.63;0.63;;;0.70;99.90;;;;;;4978767;28;20038;-79
2024/01/06 03:10:29;;;;;;;0.60;0.60;;;0.70;99.90;;;;;;4963716;28;20042;-79
2024/01/06 03:12:54;;;;;;;0.90;0.90;;;0.70;99.90;;;;;;5016619;28;20052;-79
2024/01/06 03:15:20;;;;;;;0.80;0.80;;;0.70;99.90;;;;;;4992992;28;20825;-80
2024/01/06 03:17:46;;;;;;;1.05;1.05;;;0.70;99.90;;;;;;4995854;28;20127;-76
2024/01/06 03:20:11;;;;;;;0.73;0.73;;;0.70;99.90;;;;;;5017135;28;20041;-76
2024/01/06 03:22:38;;;;;;;0.80;0.80;;;0.70;99.90;;;;;;4979113;28;20415;-81
2024/01/06 03:25:04;;;;;;;0.65;0.65;;;0.70;99.90;;;;;;4997986;28;20132;-81
2024/01/06 03:27:30;;;;;;;0.65;0.65;;;0.70;99.90;;;;;;5013477;28;20038;-79
2024/01/06 03:29:55;;;;;;;0.60;0.60;;;0.70;99.90;;;;;;5011505;28;20104;-78
2024/01/06 03:32:22;;;;;;;0.70;0.70;;;0.70;99.90;;;;;;4979966;28;20056;-80
2024/01/06 03:34:47;;;;;;;0.68;0.68;;;0.70;99.90;;;;;;4992814;28;20072;-81
2024/01/06 03:37:13;;;;;;;0.70;0.70;;;1.20;99.90;;;;;;4995531;28;20204;-79
2024/01/06 03:39:39;;;;;;;0.70;0.70;;;0.70;99.90;;;;;;4980186;28;20491;-80
2024/01/06 03:42:05;;;;;;;0.80;0.80;;;0.90;99.90;;;;;;4982662;28;20139;-78
2024/01/06 03:44:33;;;;;;;;;;;0.70;99.90;;;;;;5009573;28;20045;-82
2024/01/06 03:46:59;;;;;;;1.25;1.25;;;0.70;99.90;;;;;;4994105;28;19943;-83
2024/01/06 03:49:25;;;;;;;0.90;0.90;;;0.70;99.90;;;;;;5009848;28;20512;-79
2024/01/06 03:51:51;;;;;;;0.60;0.60;;;0.70;99.90;;;;;;4998373;28;20499;-81
2024/01/06 03:54:17;;;;;;;0.80;0.80;;;0.70;99.90;;;;;;4999785;28;20049;-80
2024/01/06 03:56:43;;;;;;;1.27;1.27;;;0.70;99.90;;;;;;4990286;28;20041;-79
2024/01/06 03:59:09;;;;;;;1.10;1.10;;;0.60;99.90;;;;;;5015332;28;20819;-81
2024/01/06 04:01:35;;;;;;;2.15;2.05;;;0.60;99.90;;;;;;5003543;28;20042;-78
2024/01/06 04:04:05;;;;;;;1.30;1.27;;;0.70;99.90;;;;;;5014505;28;20046;-79
2024/01/06 04:06:34;;;;;;;0.90;0.90;;;0.70;99.90;;;;;;5011978;28;20464;-80
2024/01/06 04:09:01;;;;;;;0.90;0.90;;;0.70;99.90;;;;;;5013983;28;20059;-81
2024/01/06 04:11:26;;;;;;;0.70;0.70;;;1.10;99.90;;;;;;5019272;28;20108;-79
2024/01/06 04:13:52;;;;;;;0.60;0.60;;;0.80;99.90;;;;;;5000828;28;20050;-78
2024/01/06 04:16:18;;;;;;;0.70;0.70;;;0.70;99.90;;;;;;4995766;28;20127;-78
2024/01/06 04:18:44;;;;;;;2.80;1.48;;;0.70;99.90;;;;;;4998330;28;20041;-80
2024/01/06 04:21:11;;;;;;;2.97;2.58;;;0.90;99.90;;;;;;5017199;28;20435;-80
2024/01/06 04:23:36;;;;;;;1.33;1.23;;;1.40;99.90;;;;;;4984679;28;20050;-78
2024/01/06 04:26:04;;;;;;;0.80;0.80;;;0.70;99.90;;;;;;4995366;28;20087;-80
2024/01/06 04:28:30;;;;;;;1.17;1.17;;;0.70;99.90;;;;;;5008763;28;20050;-78
2024/01/06 04:30:55;;;;;;;1.45;1.42;;;0.70;99.90;;;;;;4994276;28;20044;-81
2024/01/06 04:33:21;;;;;;;0.70;0.70;;;0.60;99.90;;;;;;4962818;28;20095;-81
2024/01/06 04:35:49;;;;;;;1.85;1.75;;;0.60;99.90;;;;;;4979582;28;20096;-79
2024/01/06 04:38:14;;;;;;;0.95;0.95;;;0.70;99.90;;;;;;5016132;28;20103;-80
2024/01/06 04:40:40;;;;;;;0.90;0.90;;;0.60;99.90;;;;;;5016057;28;20048;-79
2024/01/06 04:43:06;;;;;;;1.75;1.55;;;0.70;99.90;;;;;;5013480;28;20045;-82
2024/01/06 04:45:32;;;;;;;0.70;0.70;;;1.30;99.90;;;;;;5014191;28;20372;-80
2024/01/06 04:47:58;;;;;;;0.70;0.70;;;0.70;99.90;;;;;;5012293;28;20095;-81
2024/01/06 04:50:24;;;;;;;0.70;0.70;;;0.70;99.90;;;;;;5002061;28;20083;-78
2024/01/06 04:52:50;;;;;;;0.70;0.70;;;0.70;99.90;;;;;;4998746;28;20045;-77
2024/01/06 04:55:15;;;;;;;0.88;0.88;;;0.70;99.90;;;;;;4974903;28;20049;-78
2024/01/06 04:57:41;;;;;;;0.70;0.70;;;0.70;99.90;;;;;;4987359;28;20045;-80
2024/01/06 05:00:07;;;;;;;0.90;0.90;;;0.70;99.90;;;;;;5007077;28;20499;-80
2024/01/06 05:02:34;;;;;;;0.80;0.80;;;0.70;99.90;;;;;;4993634;28;20087;-79
2024/01/06 05:04:59;;;;;;;;;;;0.70;99.90;;;;;;4997507;28;20038;-81
2024/01/06 05:07:25;;;;;;;0.70;0.70;;;0.60;99.90;;;;;;4993078;28;19932;-80
2024/01/06 05:09:50;;;;;;;0.70;0.70;;;0.70;99.90;;;;;;5024778;28;20065;-81
2024/01/06 05:12:16;;;;;;;1.48;1.38;;;0.70;99.90;;;;;;5010755;28;20117;-84
2024/01/06 05:14:42;;;;;;;0.65;0.65;;;0.70;99.90;;;;;;4992204;28;20045;-78
2024/01/06 05:17:08;;;;;;;0.90;0.90;;;0.60;99.90;;;;;;4993981;28;20356;-79
2024/01/06 05:19:35;;;;;;;0.60;0.60;;;0.70;99.90;;;;;;4989697;28;20038;-80
2024/01/06 05:22:00;;;;;;;;;;;0.70;99.90;;;;;;5012361;28;20398;-79
2024/01/06 05:24:26;;;;;;;0.70;0.70;;;0.70;99.90;;;;;;5010492;28;19928;-77
2024/01/06 05:26:52;;;;;;;0.70;0.70;;;0.70;99.90;;;;;;5009896;28;20065;-82
2024/01/06 05:29:17;;;;;;;0.80;0.80;;;0.70;99.90;;;;;;4986165;28;20058;-79
2024/01/06 05:31:43;;;;;;;0.75;0.75;;;0.70;99.90;;;;;;4998540;28;20502;-78
2024/01/06 05:34:09;;;;;;;0.70;0.70;;;0.80;99.90;;;;;;5013297;28;20065;-80
2024/01/06 05:36:34;;;;;;;0.90;0.90;;;0.70;99.90;;;;;;5000368;28;20034;-79
2024/01/06 05:39:00;;;;;;;0.68;0.68;;;0.70;99.90;;;;;;4984888;28;20042;-78
2024/01/06 05:41:26;;;;;;;0.63;0.63;;;0.70;99.90;;;;;;4978172;28;20372;-82
2024/01/06 05:43:52;;;;;;;0.70;0.70;;;1.00;99.90;;;;;;5008765;28;20053;-79
2024/01/06 05:46:24;;;;;;;0.80;0.80;;;0.70;99.90;;;;;;4994321;28;20139;-81
2024/01/06 05:48:50;;;;;;;0.80;0.80;;;0.80;99.90;;;;;;4994547;28;20479;-78
2024/01/06 05:51:16;;;;;;;0.85;0.85;;;0.80;99.90;;;;;;5013078;28;20038;-80
2024/01/06 05:53:44;;;;;;;0.77;0.77;;;0.80;99.90;;;;;;5010902;28;20041;-77
2024/01/06 05:56:10;;;;;;;0.70;0.70;;;0.70;99.90;;;;;;5013223;28;20084;-78
2024/01/06 05:58:35;;;;;;;0.75;0.75;;;0.80;99.90;;;;;;5009175;28;20051;-79
2024/01/06 06:01:01;;;;;;;0.75;0.75;;;0.80;99.90;;;;;;5010830;28;20042;-79
2024/01/06 06:03:27;;;;;;;0.60;0.60;;;0.80;99.90;;;;;;4993655;28;20054;-78
2024/01/06 06:05:53;;;;;;;1.17;1.17;;;0.80;99.90;;;;;;5009542;28;20140;-78
2024/01/06 06:08:19;;;;;;;0.73;0.73;;;1.80;99.90;;;;;;5011734;28;20117;-82
2024/01/06 06:11:01;;;;;;;0.90;0.90;;;0.90;99.90;;;;;;5002211;28;20197;-78
2024/01/06 06:13:28;;;;;;;0.75;0.75;;;0.80;99.90;;;;;;4996671;28;20208;-81
2024/01/06 06:15:54;;;;;;;1.92;1.83;;;0.80;99.90;;;;;;5009830;28;20042;-80
2024/01/06 06:18:20;;;;;;;0.80;0.80;;;1.10;99.90;;;;;;5010583;28;20480;-80
2024/01/06 06:20:47;;;;;;;1.75;1.63;;;0.90;99.90;;;;;;4996204;28;20046;-78
2024/01/06 06:23:12;;;;;;;1.65;1.55;;;0.90;99.90;;;;;;4995925;28;20125;-80
2024/01/06 06:25:39;;;;;;;0.73;0.73;;;1.00;99.90;;;;;;5014747;28;20125;-81
2024/01/06 06:28:05;;;;;;;0.70;0.70;;;1.00;99.90;;;;;;5017738;28;20069;-80
2024/01/06 06:30:30;;;;;;;;;;;0.90;99.90;;;;;;5000648;28;20446;-78
2024/01/06 06:32:56;;;;;;;2.25;1.17;;;0.90;99.90;;;;;;5000754;28;19921;-82
2024/01/06 06:35:23;;;;;;;0.80;0.80;;;0.90;99.90;;;;;;5022041;28;21509;-79
2024/01/06 06:37:49;;;;;;;0.80;0.80;;;0.90;99.90;;;;;;5018780;28;20045;-81
2024/01/06 06:40:15;;;;;;;0.80;0.80;;;1.00;99.90;;;;;;5015352;28;20042;-78
2024/01/06 06:42:41;;;;;;;1.52;1.48;;;0.90;99.90;;;;;;5021635;28;20045;-82
2024/01/06 06:45:07;;;;;;;0.63;0.63;;;1.30;99.90;;;;;;5001757;28;20037;-77
2024/01/06 06:47:33;;;;;;;0.90;0.90;;;1.00;99.90;;;;;;5001254;28;20387;-78
2024/01/06 06:49:59;;;;;;;0.60;0.60;;;0.90;99.90;;;;;;5020211;28;20041;-81
2024/01/06 06:52:24;;;;;;;0.70;0.70;;;0.90;99.90;;;;;;5001290;28;20144;-78
2024/01/06 06:54:52;;;;;;;0.80;0.80;;;0.90;99.90;;;;;;5002162;28;20048;-82
2024/01/06 06:57:18;;;;;;;0.70;0.70;;;0.90;99.90;;;;;;5016623;28;20046;-78
2024/01/06 06:59:44;;;;;;;;;;;0.90;99.90;;;;;;5019199;28;21651;-78
2024/01/06 07:02:10;;;;;;;1.10;1.10;;;0.90;99.90;;;;;;4988019;28;19917;-79
2024/01/06 07:04:36;;;;;;;0.80;0.80;;;1.00;99.90;;;;;;4995926;28;20089;-80
2024/01/06 07:07:02;;;;;;;0.60;0.60;;;0.90;99.90;;;;;;4999089;28;20380;-82
2024/01/06 07:09:28;;;;;;;1.55;1.45;;;0.90;99.90;;;;;;5017603;28;20045;-79
2024/01/06 07:11:53;;;;;;;0.70;0.70;;;0.90;99.90;;;;;;5017985;28;20065;-80
2024/01/06 07:14:19;;;;;;;0.70;0.70;;;0.90;99.90;;;;;;4981687;28;20395;-77
2024/01/06 07:16:45;;;;;;;0.60;0.60;;;0.90;99.90;;;;;;4997418;28;20051;-80
2024/01/06 07:19:11;;;;;;;0.80;0.80;;;0.90;99.90;;;;;;5005064;28;20466;-82
2024/01/06 07:21:37;;;;;;;1.80;1.70;;;0.90;99.90;;;;;;4984895;28;20044;-80
2024/01/06 07:24:03;;;;;;;0.75;0.75;;;0.90;99.90;;;;;;4995203;28;20034;-78
2024/01/06 07:26:29;;;;;;;0.80;0.80;;;0.90;99.90;;;;;;5000851;28;20121;-80
2024/01/06 07:28:55;;;;;;;0.60;0.60;;;0.90;99.90;;;;;;5014352;28;20137;-81
2024/01/06 07:31:20;;;;;;;1.75;1.60;;;0.90;99.90;;;;;;5018231;28;20071;-78
2024/01/06 07:33:46;;;;;;;3.17;2.30;;;0.90;99.90;;;;;;5016105;28;20046;-77
2024/01/06 07:36:12;;;;;;;0.70;0.70;;;1.00;99.90;;;;;;5006169;28;20041;-80
2024/01/06 07:38:38;;;;;;;0.75;0.75;;;1.10;99.90;;;;;;4989672;28;20495;-82
2024/01/06 07:41:06;;;;;;;0.70;0.70;;;1.00;99.90;;;;;;4979078;28;20057;-81
2024/01/06 07:43:32;;;;;;;1.77;1.67;;;0.80;99.90;;;;;;4996877;28;20045;-82
2024/01/06 07:45:58;;;;;;;0.65;0.65;;;0.90;99.90;;;;;;4995217;28;20436;-80
2024/01/06 07:48:23;;;;;;;0.90;0.90;;;1.20;99.90;;;;;;4995915;28;21688;-80
2024/01/06 07:50:50;;;;;;;0.85;0.85;;;1.00;99.90;;;;;;4996998;28;20045;-81
2024/01/06 07:53:15;;;;;;;0.70;0.70;;;0.70;99.90;;;;;;4983638;28;20041;-82
2024/01/06 07:55:41;;;;;;;0.90;0.90;;;1.00;99.90;;;;;;4975705;28;20034;-82
2024/01/06 07:58:06;;;;;;;1.08;1.08;;;1.00;99.90;;;;;;5000008;28;20196;-78
2024/01/06 08:00:32;;;;;;;0.70;0.70;;;1.00;99.90;;;;;;5015256;28;20371;-81
2024/01/06 08:02:58;;;;;;;0.60;0.60;;;1.00;99.90;;;;;;5015277;28;20129;-83
2024/01/06 08:05:24;;;;;;;0.70;0.70;;;1.00;99.90;;;;;;4980228;28;20550;-79
2024/01/06 08:07:51;;;;;;;0.60;0.60;;;1.00;99.90;;;;;;4990699;28;20041;-79
2024/01/06 08:10:17;;;;;;;0.90;0.88;;;1.00;99.90;;;;;;4989919;28;20115;-81
2024/01/06 08:12:43;;;;;;;0.63;0.63;;;1.00;99.90;;;;;;5004321;28;20603;-80
2024/01/06 08:15:09;;;;;;;;;;;1.00;99.90;;;;;;5004880;28;20053;-81
2024/01/06 08:17:35;;;;;;;0.90;0.90;;;1.10;99.90;;;;;;4992283;28;20374;-82
2024/01/06 08:20:01;;;;;;;0.93;0.93;;;1.00;99.90;;;;;;5005687;28;20045;-77
2024/01/06 08:22:27;;;;;;;;;;;1.10;99.90;;;;;;4994563;28;20049;-81
2024/01/06 08:24:53;;;;;;;0.60;0.60;;;1.10;99.90;;;;;;4995704;28;19916;-81
2024/01/06 08:27:19;;;;;;;1.00;1.00;;;1.10;99.90;;;;;;4992591;28;20041;-79
2024/01/06 08:29:44;;;;;;;0.77;0.77;;;1.10;99.90;;;;;;5007261;28;20476;-80
2024/01/06 08:32:11;;;;;;;0.80;0.80;;;1.10;99.90;;;;;;4973725;28;20038;-80
2024/01/06 08:34:38;;;;;;;2.83;2.63;;;1.80;99.90;;;;;;4973588;28;20402;-80
2024/01/06 08:37:03;;;;;;;0.77;0.77;;;1.10;99.90;;;;;;4992448;28;20166;-80
2024/01/06 08:39:30;;;;;;;0.68;0.68;;;1.10;99.90;;;;;;4991175;28;20077;-79
2024/01/06 08:41:55;;;;;;;0.60;0.60;;;1.10;99.90;;;;;;4991012;28;20050;-79
2024/01/06 08:44:21;;;;;;;0.70;0.70;;;1.20;99.90;;;;;;4991689;28;20045;-80
2024/01/06 08:46:47;;;;;;;0.68;0.68;;;1.70;99.90;;;;;;4996409;28;20152;-79
2024/01/06 08:49:12;;;;;;;0.70;0.70;;;1.20;99.90;;;;;;4994647;28;20255;-79
2024/01/06 08:51:38;;;;;;;1.08;1.02;;;1.20;99.90;;;;;;5011090;28;20037;-82
2024/01/06 08:54:05;;;;;;;1.10;1.10;;;1.20;99.90;;;;;;4991826;28;20120;-79
2024/01/06 08:56:32;;;;;;;0.70;0.70;;;1.20;99.90;;;;;;5008928;28;20168;-81
2024/01/06 08:58:58;;;;;;;0.68;0.68;;;1.20;99.90;;;;;;4993195;28;20204;-85
2024/01/06 09:01:24;;;;;;;0.70;0.70;;;1.30;99.90;;;;;;4994745;28;20045;-83
2024/01/06 09:03:50;;;;;;;0.70;0.70;;;1.30;99.90;;;;;;4992437;28;20041;-86
2024/01/06 09:06:16;;;;;;;0.60;0.60;;;1.30;99.90;;;;;;5011917;28;20049;-87
2024/01/06 09:08:41;;;;;;;0.60;0.60;;;1.10;99.90;;;;;;5010747;28;20572;-82
2024/01/06 09:11:07;;;;;;;0.60;0.60;;;1.30;99.90;;;;;;4979081;28;20042;-84
2024/01/06 09:13:33;;;;;;;0.60;0.60;;;1.30;99.90;;;;;;4996975;28;20428;-81
2024/01/06 09:16:00;;;;;;;0.50;0.50;;;1.30;99.90;;;;;;5007309;28;20506;-83
2024/01/06 09:18:26;;;;;;;0.77;0.77;;;1.30;99.90;;;;;;4995179;28;20053;-81
2024/01/06 09:20:52;;;;;;;0.60;0.60;;;1.30;99.90;;;;;;5005123;28;20100;-81
2024/01/06 09:23:19;;;;;;;0.70;0.70;;;1.30;99.90;;;;;;5007613;28;20080;-81
2024/01/06 09:25:45;;;;;;;0.85;0.85;;;1.50;99.90;;;;;;5005972;28;20045;-82
2024/01/06 09:28:11;;;;;;;0.73;0.73;;;1.40;99.90;;;;;;4992050;28;20048;-80
2024/01/06 09:30:37;;;;;;;1.20;1.20;;;1.40;99.90;;;;;;5014308;28;20482;-82
2024/01/06 09:33:03;;;;;;;0.70;0.70;;;2.10;99.90;;;;;;4979154;28;20059;-82
2024/01/06 09:35:28;;;;;;;;;;;1.40;99.90;;;;;;5010147;28;20050;-80
2024/01/06 09:37:55;;;;;;;0.80;0.80;;;1.70;99.90;;;;;;5005467;28;19935;-82
2024/01/06 09:40:23;;;;;;;2.03;1.92;;;1.50;99.90;;;;;;5013728;28;20041;-80
2024/01/06 09:42:53;;;;;;;2.78;2.67;;;1.50;99.90;;;;;;4996592;28;20049;-81
2024/01/06 09:45:20;;;;;;;0.63;0.63;;;1.80;99.90;;;;;;4995360;28;20671;-81
2024/01/06 09:47:50;;;;;;;0.60;0.60;;;1.60;99.90;;;;;;5013220;28;20053;-83
2024/01/06 09:50:21;;;;;;;0.77;0.77;;;1.50;99.90;;;;;;5011491;28;20049;-82
2024/01/06 09:52:57;;;;;;;0.60;0.60;;;1.50;99.90;;;;;;5011660;28;20041;-82
2024/01/06 09:55:26;;;;;;;0.70;0.70;;;1.50;99.90;;;;;;5012447;28;20045;-81
2024/01/06 09:57:55;;;;;;;0.70;0.70;;;1.80;99.90;;;;;;4996043;28;20045;-83
2024/01/06 10:00:21;;;;;;;0.60;0.60;;;1.80;99.90;;;;;;5010865;28;20432;-82
2024/01/06 10:02:54;;;;;;;0.70;0.70;;;1.50;99.90;;;;;;4995526;28;20096;-81
2024/01/06 10:05:21;;;;;;;2.30;2.15;;;1.60;99.90;;;;;;5011037;28;20156;-80
2024/01/06 10:07:47;;;;;;;0.52;0.52;;;1.70;99.90;;;;;;4993398;28;20037;-81
2024/01/06 10:10:14;;;;;;;0.60;0.60;;;2.20;99.90;;;;;;5011736;28;20041;-81
2024/01/06 10:12:41;;;;;;;1.10;0.95;;;1.60;99.90;;;;;;5011701;28;20040;-80
2024/01/06 10:15:09;;;;;;;0.90;0.90;;;1.50;99.90;;;;;;5014636;28;20386;-81
2024/01/06 10:17:41;;;;;;;1.95;1.50;;;1.60;99.90;;;;;;4980927;28;20064;-81
2024/01/06 10:20:12;;;;;;;0.50;0.50;;;1.70;99.90;;;;;;4991261;28;20100;-82
2024/01/06 10:22:40;;;;;;;0.80;0.80;;;1.60;99.90;;;;;;5010111;28;20088;-82
2024/01/06 10:25:08;;;;;;;3.22;1.15;;;1.90;99.90;;;;;;4995941;28;20046;-81
2024/01/06 10:27:35;;;;;;;0.80;0.80;;;1.70;99.90;;;;;;5016032;28;20041;-81
2024/01/06 10:30:01;;;;;;;0.63;0.63;;;1.80;99.90;;;;;;4995764;28;20124;-81
2024/01/06 10:32:30;;;;;;;;;;;1.90;99.90;;;;;;4997485;28;20521;-80
2024/01/06 10:34:56;;;;;;;0.73;0.73;;;1.80;99.90;;;;;;5015440;28;19921;-80
2024/01/06 10:37:23;;;;;;;0.60;0.60;;;1.80;99.90;;;;;;4995047;28;20049;-81
2024/01/06 10:40:04;;;;;;;1.00;1.00;;;1.80;99.90;;;;;;4992734;28;20080;-81
2024/01/06 10:42:30;;;;;;;0.60;0.60;;;1.50;99.90;;;;;;5016070;28;20046;-81
2024/01/06 10:44:56;;;;;;;0.70;0.70;;;2.30;99.90;;;;;;4982427;28;20136;-81
2024/01/06 10:47:23;;;;;;;0.70;0.70;;;1.90;99.90;;;;;;4979029;28;20151;-81
2024/01/06 10:49:50;;;;;;;0.70;0.70;;;1.90;99.90;;;;;;5017239;28;20034;-80
2024/01/06 10:52:15;;;;;;;1.00;0.95;;;1.90;99.90;;;;;;5013759;28;20084;-81
2024/01/06 10:54:41;;;;;;;0.65;0.65;;;2.90;99.90;;;;;;5010748;28;20470;-82
2024/01/06 10:57:07;;;;;;;0.60;0.60;;;1.90;99.90;;;;;;4994775;28;20046;-82
2024/01/06 10:59:34;;;;;;;0.65;0.65;;;1.80;99.90;;;;;;4989821;28;20096;-81
2024/01/06 11:02:01;;;;;;;0.93;0.93;;;1.80;99.90;;;;;;5010421;28;20478;-82
2024/01/06 11:04:27;;;;;;;1.85;1.40;;;1.80;99.90;;;;;;5013427;28;20121;-81
2024/01/06 11:06:53;;;;;;;0.60;0.60;;;1.90;99.90;;;;;;4979424;28;20049;-81
2024/01/06 11:09:27;;;;;;;0.60;0.60;;;1.90;99.90;;;;;;5011040;28;20048;-81
2024/01/06 11:11:53;;;;;;;0.52;0.52;;;2.00;99.90;;;;;;4994970;28;20041;-81
2024/01/06 11:14:24;;;;;;;2.15;1.00;;;2.00;99.90;;;;;;5011413;28;20438;-80
2024/01/06 11:16:50;;;;;;;1.25;1.15;;;2.00;99.90;;;;;;4996360;28;20057;-83
2024/01/06 11:19:34;;;;;;;;;;;2.00;99.90;;;;;;4981646;28;20108;-81
2024/01/06 11:22:26;;;;;;;0.70;0.70;;;2.00;99.90;;;;;;5014956;28;19918;-82
2024/01/06 11:24:53;;;;;;;0.70;0.70;;;2.10;99.90;;;;;;5011047;28;20790;-81
2024/01/06 11:27:28;;;;;;;1.23;1.17;;;2.10;99.90;;;;;;5002702;28;20052;-81
2024/01/06 11:30:07;;;;;;;1.52;1.42;;;2.20;99.90;;;;;;4977992;28;20037;-80
2024/01/06 11:32:37;;;;;;;0.60;0.60;;;2.20;99.90;;;;;;5011715;28;20042;-81
2024/01/06 11:35:17;;;;;;;1.42;1.35;;;2.20;99.90;;;;;;5010874;28;20042;-81
2024/01/06 11:37:43;;;;;;;0.98;0.98;;;1.90;99.90;;;;;;5003815;28;20042;-81
2024/01/06 11:40:13;;;;;;;0.90;0.90;;;2.30;99.90;;;;;;4995512;28;20038;-83
2024/01/06 11:42:45;;;;;;;0.60;0.60;;;2.10;99.90;;;;;;5010831;28;20050;-81
2024/01/06 11:45:12;;;;;;;1.70;1.60;;;2.10;99.90;;;;;;4992729;28;20454;-81
2024/01/06 11:47:39;;;;;;;0.55;0.55;;;2.50;99.90;;;;;;5011867;28;20131;-81
2024/01/06 11:50:05;;;;;;;0.80;0.80;;;2.10;99.90;;;;;;5008286;28;20045;-81
2024/01/06 11:52:32;;;;;;;0.60;0.60;;;2.00;99.90;;;;;;5012554;28;20073;-82
2024/01/06 11:54:58;;;;;;;0.60;0.60;;;2.00;99.90;;;;;;5009488;28;20077;-81
2024/01/06 11:57:28;;;;;;;0.70;0.70;;;2.00;99.90;;;;;;4993356;28;20108;-83
2024/01/06 11:59:54;;;;;;;0.75;0.75;;;2.10;99.90;;;;;;4986553;28;20080;-82
2024/01/06 12:02:22;;;;;;;0.80;0.80;;;1.70;99.90;;;;;;5013080;28;20077;-82
2024/01/06 12:04:54;;;;;;;0.60;0.60;;;2.20;99.90;;;;;;4991557;28;20044;-81
2024/01/06 12:07:24;;;;;;;0.65;0.65;;;2.10;99.90;;;;;;5014993;28;20038;-81
2024/01/06 12:09:59;;;;;;;0.52;0.52;;;3.00;99.90;;;;;;4985185;28;20064;-81
2024/01/06 12:12:25;;;;;;;0.60;0.60;;;1.80;99.90;;;;;;4992075;28;20367;-80
2024/01/06 12:14:51;;;;;;;0.50;0.50;;;1.80;99.90;;;;;;4991778;28;20297;-81
2024/01/06 12:17:17;;;;;;;0.73;0.73;;;1.80;99.90;;;;;;5012589;28;20061;-80
2024/01/06 12:19:43;;;;;;;1.40;1.30;;;1.80;99.90;;;;;;4980705;28;20042;-82
2024/01/06 12:22:15;;;;;;;0.93;0.88;;;1.80;99.90;;;;;;4993008;28;20091;-82
2024/01/06 12:24:44;;;;;;;0.80;0.80;;;1.70;99.90;;;;;;4994434;28;20035;-80
2024/01/06 12:27:10;;;;;;;0.50;0.50;;;2.50;99.90;;;;;;5001313;28;20084;-81
2024/01/06 12:29:41;;;;;;;0.93;0.93;;;1.60;99.90;;;;;;5011389;28;20045;-82
2024/01/06 12:32:07;;;;;;;0.85;0.85;;;1.90;99.90;;;;;;5008701;28;20034;-82
2024/01/06 12:34:37;;;;;;;0.80;0.80;;;2.00;99.90;;;;;;4975776;28;20038;-83
2024/01/06 12:37:03;;;;;;;0.60;0.60;;;1.50;99.90;;;;;;5008949;28;20053;-81
2024/01/06 12:39:29;;;;;;;;;;;1.60;99.90;;;;;;4997633;28;20237;-81
2024/01/06 12:41:56;;;;;;;0.82;0.82;;;1.60;99.90;;;;;;4990308;28;19921;-81
2024/01/06 12:44:21;;;;;;;0.90;0.90;;;1.50;99.90;;;;;;5007854;28;20087;-81
2024/01/06 12:46:48;;;;;;;0.60;0.60;;;1.60;99.90;;;;;;4994367;28;20037;-81
2024/01/06 12:49:14;;;;;;;1.10;1.10;;;1.50;99.90;;;;;;5011517;28;20048;-81
2024/01/06 12:51:39;;;;;;;0.70;0.70;;;1.30;99.90;;;;;;4997337;28;20046;-81
2024/01/06 12:54:05;;;;;;;1.05;1.05;;;1.50;99.90;;;;;;4976126;28;20040;-81
2024/01/06 12:56:31;;;;;;;0.90;0.90;;;1.40;99.90;;;;;;5005865;28;20498;-82